createdAt,value
2023-04-07T00:02:18.101Z,15.30
2023-04-07T00:04:44.618Z,15.13
2023-04-07T00:07:11.550Z,15.20
2023-04-07T00:09:38.128Z,15.90
2023-04-07T00:12:04.795Z,16.57
2023-04-07T00:14:31.337Z,15.80
2023-04-07T00:16:57.942Z,15.13
2023-04-07T00:19:24.438Z,15.23
2023-04-07T00:21:50.903Z,13.77
2023-04-07T00:24:24.078Z,14.30
2023-04-07T00:26:58.038Z,14.03
2023-04-07T00:29:24.495Z,14.37
2023-04-07T00:31:51.205Z,14.17
2023-04-07T00:34:18.191Z,13.67
2023-04-07T00:36:44.799Z,13.83
2023-04-07T00:39:11.461Z,13.83
2023-04-07T00:41:38.041Z,13.77
2023-04-07T00:44:04.636Z,14.37
2023-04-07T00:46:31.180Z,13.67
2023-04-07T00:48:57.764Z,14.23
2023-04-07T00:51:24.290Z,13.27
2023-04-07T00:53:50.824Z,14.00
2023-04-07T00:56:17.412Z,13.80
2023-04-07T00:58:43.916Z,14.33
2023-04-07T01:01:17.053Z,14.23
2023-04-07T01:03:51.036Z,14.93
2023-04-07T01:06:20.036Z,14.07
2023-04-07T01:09:05.105Z,13.73
2023-04-07T01:11:42.791Z,13.93
2023-04-07T01:14:10.083Z,14.40
2023-04-07T01:16:42.786Z,14.80
2023-04-07T01:19:35.721Z,13.97
2023-04-07T01:22:03.748Z,13.63
2023-04-07T01:24:39.464Z,14.63
2023-04-07T01:27:14.178Z,13.43
2023-04-07T01:29:47.531Z,14.33
2023-04-07T01:32:14.774Z,14.40
2023-04-07T01:34:41.969Z,14.10
2023-04-07T01:37:08.815Z,14.77
2023-04-07T01:39:35.882Z,12.97
2023-04-07T01:42:04.081Z,13.90
2023-04-07T01:44:32.492Z,13.83
2023-04-07T01:46:59.844Z,14.17
2023-04-07T01:49:27.304Z,13.70
2023-04-07T01:51:54.806Z,14.00
2023-04-07T01:54:21.499Z,12.47
2023-04-07T01:56:48.025Z,13.57
2023-04-07T01:59:14.594Z,13.90
2023-04-07T02:01:42.449Z,13.10
2023-04-07T02:04:12.620Z,12.97
2023-04-07T02:06:42.578Z,12.00
2023-04-07T02:09:11.023Z,13.10
2023-04-07T02:11:37.677Z,12.93
2023-04-07T02:14:04.582Z,12.63
2023-04-07T02:16:31.427Z,13.40
2023-04-07T02:18:58.839Z,12.97
2023-04-07T02:21:25.964Z,12.20
2023-04-07T02:23:52.482Z,12.63
2023-04-07T02:26:19.075Z,10.97
2023-04-07T02:28:45.576Z,11.43
2023-04-07T02:31:13.790Z,12.27
2023-04-07T02:33:40.500Z,11.00
2023-04-07T02:36:07.187Z,11.07
2023-04-07T02:38:33.677Z,11.33
2023-04-07T02:41:00.353Z,11.03
2023-04-07T02:43:27.106Z,10.80
2023-04-07T02:45:53.787Z,10.30
2023-04-07T02:48:20.301Z,10.77
2023-04-07T02:50:46.910Z,10.43
2023-04-07T02:53:13.447Z,11.43
2023-04-07T02:55:39.982Z,11.13
2023-04-07T02:58:06.872Z,12.17
2023-04-07T03:00:34.265Z,11.73
2023-04-07T03:03:01.600Z,11.70
2023-04-07T03:05:28.289Z,12.30
2023-04-07T03:07:54.909Z,11.90
2023-04-07T03:10:21.554Z,12.90
2023-04-07T03:12:48.037Z,10.77
2023-04-07T03:15:14.579Z,11.97
2023-04-07T03:17:41.983Z,11.13
2023-04-07T03:20:08.938Z,12.23
2023-04-07T03:22:35.440Z,12.23
2023-04-07T03:25:02.034Z,11.50
2023-04-07T03:27:28.571Z,12.57
2023-04-07T03:29:55.118Z,12.57
2023-04-07T03:32:21.745Z,12.13
2023-04-07T03:34:48.282Z,13.27
2023-04-07T03:37:14.790Z,12.77
2023-04-07T03:39:42.102Z,12.03
2023-04-07T03:42:08.734Z,13.07
2023-04-07T03:44:35.254Z,12.97
2023-04-07T03:47:02.254Z,13.33
2023-04-07T03:49:29.572Z,11.77
2023-04-07T03:51:56.117Z,12.83
2023-04-07T03:54:22.595Z,12.23
2023-04-07T03:56:49.183Z,12.37
2023-04-07T03:59:15.724Z,12.53
2023-04-07T04:01:42.291Z,11.57
2023-04-07T04:04:09.115Z,11.90
2023-04-07T04:06:35.837Z,12.17
2023-04-07T04:09:02.466Z,11.33
2023-04-07T04:11:29.008Z,12.70
2023-04-07T04:14:15.939Z,11.97
2023-04-07T04:16:46.328Z,12.27
2023-04-07T04:19:32.859Z,12.13
2023-04-07T04:22:19.292Z,12.27
2023-04-07T04:25:04.548Z,12.03
2023-04-07T04:27:48.644Z,12.73
2023-04-07T04:30:18.286Z,11.30
2023-04-07T04:32:45.196Z,12.13
2023-04-07T04:35:11.854Z,11.90
2023-04-07T04:37:38.453Z,11.70
2023-04-07T04:40:08.588Z,11.57
2023-04-07T04:42:35.132Z,11.30
2023-04-07T04:45:01.647Z,11.63
2023-04-07T04:47:28.282Z,11.60
2023-04-07T04:49:54.827Z,11.57
2023-04-07T04:52:21.922Z,12.23
2023-04-07T04:54:48.758Z,11.37
2023-04-07T04:57:16.106Z,12.17
2023-04-07T04:59:42.924Z,12.13
2023-04-07T05:02:09.879Z,11.47
2023-04-07T05:04:36.847Z,12.03
2023-04-07T05:07:04.166Z,12.63
2023-04-07T05:09:31.187Z,12.73
2023-04-07T05:11:58.128Z,12.60
2023-04-07T05:14:24.625Z,12.47
2023-04-07T05:16:51.570Z,12.40
2023-04-07T05:19:18.117Z,13.03
2023-04-07T05:21:44.641Z,12.17
2023-04-07T05:24:11.149Z,12.73
2023-04-07T05:26:37.748Z,12.47
2023-04-07T05:29:04.263Z,12.23
2023-04-07T05:31:30.801Z,12.03
2023-04-07T05:33:57.443Z,13.33
2023-04-07T05:36:24.014Z,13.03
2023-04-07T05:38:50.669Z,12.73
2023-04-07T05:41:17.194Z,12.43
2023-04-07T05:43:43.742Z,12.80
2023-04-07T05:46:10.505Z,12.50
2023-04-07T05:48:37.134Z,12.17
2023-04-07T05:51:03.823Z,12.73
2023-04-07T05:53:30.346Z,12.13
2023-04-07T05:55:56.864Z,12.97
2023-04-07T05:58:23.507Z,12.23
2023-04-07T06:00:50.310Z,12.83
2023-04-07T06:03:17.192Z,12.57
2023-04-07T06:05:45.786Z,12.83
2023-04-07T06:08:12.348Z,12.57
2023-04-07T06:10:41.301Z,12.97
2023-04-07T06:13:07.981Z,12.33
2023-04-07T06:15:35.055Z,12.47
2023-04-07T06:18:01.587Z,12.63
2023-04-07T06:20:28.292Z,12.60
2023-04-07T06:22:55.081Z,12.57
2023-04-07T06:25:21.923Z,12.37
2023-04-07T06:27:48.548Z,13.17
2023-04-07T06:30:15.446Z,12.20
2023-04-07T06:32:42.029Z,11.73
2023-04-07T06:35:08.753Z,13.50
2023-04-07T06:37:35.519Z,12.77
2023-04-07T06:40:01.990Z,11.73
2023-04-07T06:42:28.522Z,12.07
2023-04-07T06:44:55.025Z,12.60
2023-04-07T06:47:21.925Z,11.97
2023-04-07T06:49:48.521Z,12.37
2023-04-07T06:52:15.865Z,11.97
2023-04-07T06:54:42.465Z,12.23
2023-04-07T06:57:12.121Z,13.60
2023-04-07T06:59:38.862Z,11.90
2023-04-07T07:02:07.582Z,12.40
2023-04-07T07:04:34.843Z,12.40
2023-04-07T07:07:01.597Z,12.97
2023-04-07T07:09:28.209Z,11.50
2023-04-07T07:11:54.723Z,10.77
2023-04-07T07:14:21.450Z,11.40
2023-04-07T07:16:47.960Z,11.00
2023-04-07T07:19:15.104Z,11.73
2023-04-07T07:21:41.682Z,10.87
2023-04-07T07:24:08.321Z,10.50
2023-04-07T07:26:34.984Z,10.97
2023-04-07T07:29:01.581Z,11.07
2023-04-07T07:31:28.174Z,11.27
2023-04-07T07:33:54.890Z,11.00
2023-04-07T07:36:22.076Z,11.07
2023-04-07T07:38:50.295Z,11.07
2023-04-07T07:41:17.017Z,10.40
2023-04-07T07:43:43.579Z,11.27
2023-04-07T07:46:10.562Z,11.57
2023-04-07T07:48:37.208Z,10.77
2023-04-07T07:51:03.874Z,10.33
2023-04-07T07:53:30.561Z,10.80
2023-04-07T07:55:57.157Z,11.43
2023-04-07T07:58:23.692Z,10.50
2023-04-07T08:00:50.458Z,10.33
2023-04-07T08:03:17.233Z,10.30
2023-04-07T08:05:44.438Z,11.03
2023-04-07T08:08:11.163Z,10.97
2023-04-07T08:10:37.873Z,10.80
2023-04-07T08:13:05.246Z,10.30
2023-04-07T08:15:31.825Z,10.30
2023-04-07T08:18:00.192Z,10.67
2023-04-07T08:20:27.625Z,10.50
2023-04-07T08:22:54.174Z,11.33
2023-04-07T08:25:21.056Z,10.53
2023-04-07T08:27:47.573Z,10.20
2023-04-07T08:30:14.084Z,10.17
2023-04-07T08:32:41.596Z,10.00
2023-04-07T08:35:08.485Z,10.50
2023-04-07T08:37:36.064Z,10.10
2023-04-07T08:40:03.811Z,9.50
2023-04-07T08:42:31.939Z,10.70
2023-04-07T08:45:00.939Z,10.53
2023-04-07T08:47:28.430Z,10.60
2023-04-07T08:49:57.164Z,10.83
2023-04-07T08:52:24.715Z,9.53
2023-04-07T08:54:53.192Z,10.57
2023-04-07T08:57:20.637Z,9.80
2023-04-07T08:59:49.094Z,10.63
2023-04-07T09:02:15.859Z,9.97
2023-04-07T09:04:43.808Z,10.73
2023-04-07T09:07:10.352Z,9.90
2023-04-07T09:09:36.891Z,10.30
2023-04-07T09:12:03.723Z,10.30
2023-04-07T09:14:30.328Z,10.00
2023-04-07T09:16:57.211Z,10.17
2023-04-07T09:19:24.964Z,9.37
2023-04-07T09:21:52.521Z,10.03
2023-04-07T09:24:23.375Z,10.40
2023-04-07T09:26:50.027Z,10.77
2023-04-07T09:29:20.725Z,10.93
2023-04-07T09:31:47.349Z,11.30
2023-04-07T09:34:33.688Z,11.83
2023-04-07T09:37:00.543Z,10.97
2023-04-07T09:39:27.301Z,10.80
2023-04-07T09:41:53.916Z,11.40
2023-04-07T09:44:20.934Z,11.37
2023-04-07T09:46:57.670Z,11.97
2023-04-07T09:49:25.227Z,12.30
2023-04-07T09:51:57.800Z,12.97
2023-04-07T09:54:36.568Z,12.13
2023-04-07T09:57:06.887Z,12.57
2023-04-07T09:59:34.463Z,12.37
2023-04-07T10:02:01.811Z,12.47
2023-04-07T10:04:29.618Z,12.10
2023-04-07T10:06:57.264Z,12.27
2023-04-07T10:09:24.549Z,12.57
2023-04-07T10:11:51.784Z,13.00
2023-04-07T10:14:18.967Z,13.30
2023-04-07T10:16:46.917Z,12.47
2023-04-07T10:19:13.915Z,12.33
2023-04-07T10:21:42.354Z,11.93
2023-04-07T10:24:45.122Z,13.20
2023-04-07T10:27:13.605Z,12.03
2023-04-07T10:29:43.559Z,11.93
2023-04-07T10:32:10.177Z,12.53
2023-04-07T10:34:54.960Z,12.73
2023-04-07T10:37:22.525Z,12.27
2023-04-07T10:39:49.849Z,12.43
2023-04-07T10:42:35.113Z,12.63
2023-04-07T10:45:02.694Z,12.13
2023-04-07T10:47:29.369Z,11.57
2023-04-07T10:50:14.599Z,12.70
2023-04-07T10:52:41.194Z,11.30
2023-04-07T10:55:26.584Z,11.13
2023-04-07T10:58:11.874Z,12.63
2023-04-07T11:00:38.519Z,11.43
2023-04-07T11:03:15.307Z,11.90
2023-04-07T11:05:44.263Z,11.13
2023-04-07T11:08:29.689Z,11.50
2023-04-07T11:10:56.345Z,12.37
2023-04-07T11:13:23.218Z,11.63
2023-04-07T11:15:51.357Z,11.63
2023-04-07T11:18:18.892Z,11.40
2023-04-07T11:20:47.041Z,11.37
2023-04-07T11:23:14.294Z,11.30
2023-04-07T11:25:45.052Z,10.67
2023-04-07T11:28:13.267Z,10.70
2023-04-07T11:30:44.793Z,10.13
2023-04-07T11:33:15.076Z,10.40
2023-04-07T11:36:11.301Z,9.70
2023-04-07T11:38:41.304Z,9.70
2023-04-07T11:41:11.984Z,9.70
2023-04-07T11:43:39.954Z,9.40
2023-04-07T11:46:07.608Z,9.33
2023-04-07T11:48:34.746Z,10.47
2023-04-07T11:51:02.224Z,9.83
2023-04-07T11:53:38.224Z,10.43
2023-04-07T11:56:06.800Z,9.97
2023-04-07T11:58:33.691Z,9.83
2023-04-07T12:01:05.219Z,9.97
2023-04-07T12:03:32.293Z,9.03
2023-04-07T12:05:59.069Z,9.70
2023-04-07T12:08:41.915Z,9.53
2023-04-07T12:11:09.266Z,9.33
2023-04-07T12:13:39.146Z,9.90
2023-04-07T12:16:05.883Z,10.63
2023-04-07T12:18:32.679Z,9.63
2023-04-07T12:20:59.530Z,9.90
2023-04-07T12:23:26.358Z,9.33
2023-04-07T12:25:53.137Z,10.17
2023-04-07T12:28:19.901Z,10.00
2023-04-07T12:30:46.606Z,10.93
2023-04-07T12:33:13.356Z,9.77
2023-04-07T12:35:40.562Z,10.57
2023-04-07T12:38:08.287Z,9.93
2023-04-07T12:40:35.977Z,10.30
2023-04-07T12:43:04.895Z,9.80
2023-04-07T12:45:32.128Z,10.43
2023-04-07T12:47:59.281Z,10.03
2023-04-07T12:50:27.333Z,9.50
2023-04-07T12:52:54.899Z,10.27
2023-04-07T12:55:21.681Z,9.97
2023-04-07T12:57:48.747Z,9.53
2023-04-07T13:00:15.637Z,9.57
2023-04-07T13:02:42.861Z,10.33
2023-04-07T13:05:09.853Z,9.27
2023-04-07T13:07:37.984Z,10.03
2023-04-07T13:10:06.871Z,9.97
2023-04-07T13:12:33.508Z,9.90
2023-04-07T13:15:00.745Z,9.53
2023-04-07T13:17:28.953Z,9.30
2023-04-07T13:19:56.398Z,9.50
2023-04-07T13:22:24.698Z,8.73
2023-04-07T13:24:51.513Z,9.93
2023-04-07T13:27:18.220Z,9.53
2023-04-07T13:29:44.793Z,10.60
2023-04-07T13:32:13.235Z,9.17
2023-04-07T13:34:40.081Z,9.07
2023-04-07T13:37:07.073Z,9.57
2023-04-07T13:39:33.694Z,9.23
2023-04-07T13:42:01.168Z,9.60
2023-04-07T13:44:28.221Z,9.73
2023-04-07T13:46:56.506Z,9.37
2023-04-07T13:49:23.556Z,9.20
2023-04-07T13:51:50.196Z,9.33
2023-04-07T13:54:17.344Z,9.77
2023-04-07T13:56:43.978Z,9.30
2023-04-07T13:59:11.078Z,9.47
2023-04-07T14:01:39.408Z,9.60
2023-04-07T14:04:06.613Z,9.50
2023-04-07T14:06:33.591Z,9.83
2023-04-07T14:09:00.240Z,9.40
2023-04-07T14:11:27.354Z,9.13
2023-04-07T14:13:54.792Z,9.43
2023-04-07T14:16:21.717Z,9.60
2023-04-07T14:18:49.543Z,9.20
2023-04-07T14:21:16.484Z,9.30
2023-04-07T14:23:43.066Z,9.83
2023-04-07T14:26:10.549Z,9.97
2023-04-07T14:28:37.403Z,9.43
2023-04-07T14:31:04.143Z,9.10
2023-04-07T14:33:30.938Z,9.20
2023-04-07T14:35:57.928Z,9.67
2023-04-07T14:38:26.051Z,9.57
2023-04-07T14:40:53.069Z,8.63
2023-04-07T14:43:19.744Z,8.67
2023-04-07T14:45:46.396Z,9.10
2023-04-07T14:48:13.718Z,9.70
2023-04-07T14:50:40.501Z,9.27
2023-04-07T14:53:07.154Z,9.40
2023-04-07T14:55:34.398Z,8.87
2023-04-07T14:58:00.992Z,8.40
2023-04-07T15:00:28.833Z,9.03
2023-04-07T15:02:55.892Z,9.17
2023-04-07T15:05:23.113Z,9.07
2023-04-07T15:07:50.897Z,9.33
2023-04-07T15:10:18.698Z,8.70
2023-04-07T15:12:48.990Z,7.93
2023-04-07T15:15:16.115Z,8.20
2023-04-07T15:17:44.931Z,8.60
2023-04-07T15:20:13.390Z,7.97
2023-04-07T15:22:40.285Z,7.13
2023-04-07T15:25:07.222Z,7.80
2023-04-07T15:27:34.426Z,8.00
2023-04-07T15:30:01.369Z,7.57
2023-04-07T15:32:33.190Z,7.47
2023-04-07T15:35:01.108Z,7.23
2023-04-07T15:37:28.734Z,7.17
2023-04-07T15:39:56.533Z,6.43
2023-04-07T15:42:24.287Z,6.47
2023-04-07T15:44:51.374Z,7.37
2023-04-07T15:47:19.048Z,7.57
2023-04-07T15:49:47.246Z,6.37
2023-04-07T15:52:17.730Z,6.50
2023-04-07T15:54:45.428Z,7.13
2023-04-07T15:57:16.879Z,7.37
2023-04-07T15:59:43.710Z,6.97
2023-04-07T16:02:12.965Z,7.07
2023-04-07T16:04:40.927Z,6.80
2023-04-07T16:07:07.548Z,6.30
2023-04-07T16:09:34.225Z,6.63
2023-04-07T16:12:00.944Z,7.13
2023-04-07T16:14:29.282Z,6.70
2023-04-07T16:16:59.193Z,6.53
2023-04-07T16:19:28.960Z,7.03
2023-04-07T16:21:55.791Z,6.47
2023-04-07T16:24:22.345Z,6.43
2023-04-07T16:26:50.678Z,6.27
2023-04-07T16:29:18.306Z,6.10
2023-04-07T16:31:44.883Z,5.17
2023-04-07T16:34:12.157Z,5.50
2023-04-07T16:36:38.929Z,5.67
2023-04-07T16:39:05.809Z,5.87
2023-04-07T16:41:32.343Z,5.30
2023-04-07T16:43:58.979Z,5.77
2023-04-07T16:46:28.872Z,5.80
2023-04-07T16:48:55.686Z,5.40
2023-04-07T16:51:22.269Z,5.30
2023-04-07T16:53:48.905Z,4.97
2023-04-07T16:56:19.504Z,5.13
2023-04-07T16:58:46.229Z,5.30
2023-04-07T17:01:12.910Z,5.50
2023-04-07T17:03:40.355Z,5.67
2023-04-07T17:06:07.345Z,5.83
2023-04-07T17:08:37.285Z,5.43
2023-04-07T17:11:07.300Z,5.73
2023-04-07T17:13:33.965Z,5.63
2023-04-07T17:16:01.523Z,5.17
2023-04-07T17:18:28.158Z,5.83
2023-04-07T17:20:54.616Z,5.60
2023-04-07T17:23:21.179Z,5.43
2023-04-07T17:25:50.950Z,5.50
2023-04-07T17:28:18.031Z,5.17
2023-04-07T17:30:44.599Z,5.47
2023-04-07T17:33:11.663Z,5.10
2023-04-07T17:35:38.216Z,5.13
2023-04-07T17:38:04.771Z,5.20
2023-04-07T17:40:31.758Z,5.10
2023-04-07T17:43:01.399Z,4.70
2023-04-07T17:45:27.992Z,5.17
2023-04-07T17:47:55.476Z,4.97
2023-04-07T17:50:22.376Z,5.00
2023-04-07T17:52:50.054Z,4.83
2023-04-07T17:55:16.771Z,5.00
2023-04-07T17:57:43.401Z,4.93
2023-04-07T18:00:10.411Z,5.10
2023-04-07T18:02:40.125Z,5.30
2023-04-07T18:05:07.126Z,4.77
2023-04-07T18:07:33.732Z,4.87
2023-04-07T18:10:01.325Z,5.10
2023-04-07T18:12:27.964Z,4.67
2023-04-07T18:14:54.522Z,5.37
2023-04-07T18:17:21.196Z,5.63
2023-04-07T18:19:47.858Z,4.93
2023-04-07T18:22:16.297Z,5.10
2023-04-07T18:24:42.824Z,4.57
2023-04-07T18:27:10.442Z,4.60
2023-04-07T18:29:37.305Z,4.63
2023-04-07T18:32:03.790Z,4.90
2023-04-07T18:34:30.589Z,4.63
2023-04-07T18:36:57.185Z,4.70
2023-04-07T18:39:27.882Z,4.30
2023-04-07T18:41:55.119Z,4.73
2023-04-07T18:44:21.638Z,4.60
2023-04-07T18:46:48.208Z,4.90
2023-04-07T18:49:14.812Z,4.03
2023-04-07T18:51:42.212Z,3.90
2023-04-07T18:54:08.854Z,4.83
2023-04-07T18:56:35.377Z,4.73
2023-04-07T18:59:02.237Z,5.27
2023-04-07T19:01:28.855Z,4.80
2023-04-07T19:03:57.494Z,4.73
2023-04-07T19:06:24.192Z,4.60
2023-04-07T19:08:50.997Z,4.30
2023-04-07T19:11:17.670Z,4.50
2023-04-07T19:13:44.157Z,5.00
2023-04-07T19:16:11.184Z,4.90
2023-04-07T19:18:38.007Z,5.50
2023-04-07T19:21:04.577Z,5.40
2023-04-07T19:23:31.363Z,4.73
2023-04-07T19:25:57.906Z,5.10
2023-04-07T19:28:24.523Z,5.07
2023-04-07T19:30:51.069Z,5.43
2023-04-07T19:33:17.749Z,5.60
2023-04-07T19:35:44.280Z,5.00
2023-04-07T19:38:10.977Z,5.10
2023-04-07T19:40:37.590Z,4.50
2023-04-07T19:43:04.250Z,4.30
2023-04-07T19:45:31.150Z,3.73
2023-04-07T19:47:59.223Z,4.23
2023-04-07T19:50:25.801Z,4.00
2023-04-07T19:52:53.400Z,3.80
2023-04-07T19:55:20.204Z,3.97
2023-04-07T19:57:47.226Z,4.00
2023-04-07T20:00:13.980Z,4.47
2023-04-07T20:02:40.648Z,3.50
2023-04-07T20:05:08.054Z,3.43
2023-04-07T20:07:34.996Z,3.43
2023-04-07T20:10:01.648Z,3.50
2023-04-07T20:12:28.560Z,3.37
2023-04-07T20:14:55.156Z,4.00
2023-04-07T20:17:22.106Z,3.43
2023-04-07T20:19:49.425Z,3.40
2023-04-07T20:22:17.022Z,3.40
2023-04-07T20:24:43.706Z,3.57
2023-04-07T20:27:10.620Z,3.73
2023-04-07T20:29:37.325Z,3.63
2023-04-07T20:32:03.975Z,3.43
2023-04-07T20:34:30.742Z,3.80
2023-04-07T20:36:58.244Z,3.33
2023-04-07T20:39:24.921Z,3.57
2023-04-07T20:41:51.782Z,3.50
2023-04-07T20:44:18.536Z,3.37
2023-04-07T20:46:46.907Z,3.20
2023-04-07T20:49:13.496Z,3.00
2023-04-07T20:51:40.198Z,3.40
2023-04-07T20:54:06.826Z,3.47
2023-04-07T20:56:33.410Z,3.07
2023-04-07T20:58:59.996Z,3.37
2023-04-07T21:01:26.631Z,3.27
2023-04-07T21:03:54.137Z,3.40
2023-04-07T21:06:21.307Z,3.20
2023-04-07T21:08:48.234Z,3.13
2023-04-07T21:11:15.086Z,3.30
2023-04-07T21:13:41.698Z,3.33
2023-04-07T21:16:08.281Z,3.40
2023-04-07T21:18:34.946Z,3.33
2023-04-07T21:21:04.426Z,3.43
2023-04-07T21:23:31.897Z,3.50
2023-04-07T21:26:02.243Z,3.37
2023-04-07T21:28:28.849Z,3.40
2023-04-07T21:30:56.760Z,3.67
2023-04-07T21:33:23.479Z,3.17
2023-04-07T21:35:50.931Z,3.33
2023-04-07T21:38:17.505Z,3.50
2023-04-07T21:40:44.029Z,3.23
2023-04-07T21:43:10.774Z,3.07
2023-04-07T21:45:37.289Z,3.70
2023-04-07T21:48:04.290Z,4.00
2023-04-07T21:50:31.607Z,3.47
2023-04-07T21:52:58.125Z,3.37
2023-04-07T21:55:24.688Z,3.67
2023-04-07T21:57:51.417Z,3.40
2023-04-07T22:00:18.146Z,3.43
2023-04-07T22:02:45.598Z,3.00
2023-04-07T22:05:12.425Z,3.43
2023-04-07T22:07:38.999Z,3.70
2023-04-07T22:10:06.316Z,3.97
2023-04-07T22:12:32.949Z,3.53
2023-04-07T22:14:59.580Z,3.37
2023-04-07T22:17:26.417Z,3.50
2023-04-07T22:19:53.015Z,4.00
2023-04-07T22:22:19.641Z,3.40
2023-04-07T22:24:46.512Z,3.43
2023-04-07T22:27:13.134Z,3.83
2023-04-07T22:29:39.699Z,3.80
2023-04-07T22:32:06.250Z,3.77
2023-04-07T22:34:32.728Z,3.53
2023-04-07T22:36:59.280Z,3.57
2023-04-07T22:39:26.783Z,4.23
2023-04-07T22:41:53.323Z,3.80
2023-04-07T22:44:19.946Z,4.70
2023-04-07T22:46:46.692Z,4.50
2023-04-07T22:49:13.344Z,4.63
2023-04-07T22:51:41.146Z,4.60
2023-04-07T22:54:07.911Z,4.70
2023-04-07T22:56:34.479Z,5.37
2023-04-07T22:59:05.771Z,5.07
2023-04-07T23:01:32.890Z,5.37
2023-04-07T23:03:59.739Z,4.57
2023-04-07T23:06:28.571Z,5.33
2023-04-07T23:08:55.773Z,4.70
2023-04-07T23:11:22.661Z,4.70
2023-04-07T23:13:49.678Z,5.50
2023-04-07T23:16:16.462Z,5.70
2023-04-07T23:18:43.251Z,4.97
2023-04-07T23:21:10.038Z,5.53
2023-04-07T23:23:36.716Z,5.17
2023-04-07T23:26:03.275Z,5.30
2023-04-07T23:28:30.006Z,5.73
2023-04-07T23:30:57.181Z,4.87
2023-04-07T23:33:23.848Z,5.47
2023-04-07T23:35:50.671Z,5.70
2023-04-07T23:38:17.340Z,5.47
2023-04-07T23:40:43.942Z,5.40
2023-04-07T23:43:11.216Z,5.53
2023-04-07T23:45:37.905Z,6.00
2023-04-07T23:48:04.475Z,5.33
2023-04-07T23:50:31.232Z,5.63
2023-04-07T23:52:57.783Z,5.50
2023-04-07T23:55:24.353Z,6.20
2023-04-07T23:57:51.034Z,6.20
